createdAt,value
2019-05-16T00:01:48.825Z,9.45
2019-05-16T00:04:21.388Z,9.46
2019-05-16T00:06:53.966Z,9.47
2019-05-16T00:09:28.570Z,9.50
2019-05-16T00:12:00.862Z,9.48
2019-05-16T00:14:33.549Z,9.51
2019-05-16T00:17:08.188Z,9.52
2019-05-16T00:19:40.441Z,9.56
2019-05-16T00:22:13.328Z,9.61
2019-05-16T00:24:46.001Z,9.61
2019-05-16T00:27:18.723Z,9.64
2019-05-16T00:29:51.353Z,9.68
2019-05-16T00:32:24.137Z,9.67
2019-05-16T00:34:58.418Z,9.68
2019-05-16T00:37:31.446Z,9.71
2019-05-16T00:40:08.233Z,9.76
2019-05-16T00:42:40.825Z,9.80
2019-05-16T00:45:13.784Z,9.80
2019-05-16T00:47:47.964Z,9.80
2019-05-16T00:50:20.629Z,9.84
2019-05-16T00:52:53.257Z,9.85
2019-05-16T00:55:28.287Z,9.85
2019-05-16T00:58:01.700Z,9.84
2019-05-16T01:00:50.866Z,9.84
2019-05-16T01:03:23.528Z,9.87
2019-05-16T01:05:58.106Z,9.90
2019-05-16T01:08:30.502Z,9.93
2019-05-16T01:11:03.901Z,9.95
2019-05-16T01:13:38.038Z,9.96
2019-05-16T01:16:12.431Z,9.94
2019-05-16T01:18:48.911Z,9.96
2019-05-16T01:21:21.881Z,9.97
2019-05-16T01:23:54.766Z,9.98
2019-05-16T01:26:28.618Z,10.02
2019-05-16T01:29:01.466Z,10.02
2019-05-16T01:31:34.156Z,10.03
2019-05-16T01:34:07.773Z,10.05
2019-05-16T01:36:40.954Z,10.07
2019-05-16T01:39:13.645Z,10.10
2019-05-16T01:41:48.078Z,10.15
2019-05-16T01:44:20.609Z,10.19
2019-05-16T01:46:53.206Z,10.22
2019-05-16T01:49:27.885Z,10.23
2019-05-16T01:52:00.077Z,10.22
2019-05-16T01:54:32.819Z,10.26
2019-05-16T01:57:05.154Z,10.27
2019-05-16T01:59:39.041Z,10.28
2019-05-16T02:02:11.638Z,10.31
2019-05-16T02:04:44.314Z,10.35
2019-05-16T02:07:18.774Z,10.39
2019-05-16T02:09:51.290Z,10.43
2019-05-16T02:12:23.872Z,10.42
2019-05-16T02:14:58.585Z,10.42
2019-05-16T02:17:32.106Z,10.47
2019-05-16T02:20:08.673Z,10.53
2019-05-16T02:22:41.135Z,10.56
2019-05-16T02:25:14.952Z,10.57
2019-05-16T02:27:48.825Z,10.54
2019-05-16T02:30:21.985Z,10.57
2019-05-16T02:32:54.713Z,10.59
2019-05-16T02:35:27.411Z,10.62
2019-05-16T02:38:01.361Z,10.64
2019-05-16T02:40:34.306Z,10.68
2019-05-16T02:43:06.987Z,10.70
2019-05-16T02:45:41.458Z,10.69
2019-05-16T02:48:13.513Z,10.74
2019-05-16T02:50:46.251Z,10.74
2019-05-16T02:53:21.919Z,10.75
2019-05-16T02:55:53.655Z,10.78
2019-05-16T02:58:26.340Z,10.81
2019-05-16T03:01:01.489Z,10.83
2019-05-16T03:03:34.862Z,10.83
2019-05-16T03:06:11.188Z,10.83
2019-05-16T03:08:45.241Z,10.86
2019-05-16T03:11:21.122Z,10.87
2019-05-16T03:13:55.728Z,10.91
2019-05-16T03:16:31.539Z,10.94
2019-05-16T03:19:05.892Z,10.96
2019-05-16T03:21:43.076Z,11.02
2019-05-16T03:24:17.090Z,11.04
2019-05-16T03:26:51.475Z,11.03
2019-05-16T03:29:25.110Z,11.07
2019-05-16T03:32:02.540Z,11.07
2019-05-16T03:34:34.184Z,11.14
2019-05-16T03:37:05.793Z,11.15
2019-05-16T03:39:40.706Z,11.17
2019-05-16T03:42:13.623Z,11.21
2019-05-16T03:44:46.306Z,11.24
2019-05-16T03:47:21.953Z,11.28
2019-05-16T03:49:52.934Z,11.30
2019-05-16T03:52:25.570Z,11.32
2019-05-16T03:55:01.385Z,11.32
2019-05-16T03:57:32.591Z,11.34
2019-05-16T04:00:11.819Z,11.37
2019-05-16T04:02:45.701Z,11.41
2019-05-16T04:05:20.957Z,11.46
2019-05-16T04:08:08.814Z,11.46
2019-05-16T04:10:26.936Z,11.47
2019-05-16T04:13:01.036Z,11.49
2019-05-16T04:15:33.502Z,11.48
2019-05-16T04:18:06.188Z,11.47
2019-05-16T04:20:40.696Z,11.49
2019-05-16T04:23:13.698Z,11.52
2019-05-16T04:25:46.376Z,11.56
2019-05-16T04:28:21.931Z,11.60
2019-05-16T04:30:54.294Z,11.59
2019-05-16T04:33:27.023Z,11.61
2019-05-16T04:36:01.219Z,11.65
2019-05-16T04:38:40.594Z,11.69
2019-05-16T04:41:07.774Z,11.69
2019-05-16T04:43:41.579Z,11.68
2019-05-16T04:46:14.877Z,11.71
2019-05-16T04:48:50.499Z,11.75
2019-05-16T04:51:22.219Z,11.74
2019-05-16T04:53:54.963Z,11.77
2019-05-16T04:56:30.671Z,11.75
2019-05-16T04:59:02.268Z,11.73
2019-05-16T05:01:35.545Z,11.73
2019-05-16T05:04:14.148Z,11.75
2019-05-16T05:06:42.759Z,11.75
2019-05-16T05:09:15.438Z,11.78
2019-05-16T05:11:52.041Z,11.77
2019-05-16T05:14:24.279Z,11.82
2019-05-16T05:16:56.950Z,11.83
2019-05-16T05:19:30.680Z,11.83
2019-05-16T05:22:03.345Z,11.82
2019-05-16T05:24:35.957Z,11.83
2019-05-16T05:27:10.450Z,11.84
2019-05-16T05:29:43.941Z,11.79
2019-05-16T05:32:19.848Z,11.80
2019-05-16T05:34:51.851Z,11.82
2019-05-16T05:37:24.539Z,11.87
2019-05-16T05:39:57.208Z,11.87
2019-05-16T05:42:30.579Z,11.85
2019-05-16T05:45:04.017Z,11.88
2019-05-16T05:47:40.405Z,11.87
2019-05-16T05:50:16.432Z,11.90
2019-05-16T05:52:51.135Z,11.92
2019-05-16T05:55:23.426Z,11.92
2019-05-16T05:57:56.006Z,11.89
2019-05-16T06:00:30.368Z,11.90
2019-05-16T06:03:03.113Z,11.93
2019-05-16T06:05:35.743Z,11.92
2019-05-16T06:08:10.521Z,12.01
2019-05-16T06:10:42.676Z,12.01
2019-05-16T06:13:15.353Z,12.01
2019-05-16T06:15:48.036Z,12.06
2019-05-16T06:18:20.751Z,12.12
2019-05-16T06:20:53.014Z,12.17
2019-05-16T06:23:25.794Z,12.23
2019-05-16T06:26:00.360Z,12.26
2019-05-16T06:28:33.485Z,12.34
2019-05-16T06:31:06.164Z,12.47
2019-05-16T06:33:41.033Z,12.51
2019-05-16T06:36:13.110Z,12.63
2019-05-16T06:38:45.731Z,12.60
2019-05-16T06:41:19.943Z,12.71
2019-05-16T06:43:53.035Z,12.84
2019-05-16T06:46:25.721Z,12.90
2019-05-16T06:48:59.647Z,13.07
2019-05-16T06:51:32.709Z,13.16
2019-05-16T06:54:05.332Z,13.29
2019-05-16T06:56:40.074Z,13.35
2019-05-16T06:59:12.296Z,13.35
2019-05-16T07:01:44.938Z,13.43
2019-05-16T07:04:19.910Z,13.52
2019-05-16T07:06:59.012Z,13.49
2019-05-16T07:09:27.032Z,13.51
2019-05-16T07:11:59.934Z,13.55
2019-05-16T07:14:33.532Z,13.53
2019-05-16T07:17:06.280Z,13.56
2019-05-16T07:19:40.798Z,13.48
2019-05-16T07:22:13.154Z,13.56
2019-05-16T07:24:45.849Z,13.64
2019-05-16T07:27:21.857Z,13.73
2019-05-16T07:29:53.872Z,13.77
2019-05-16T07:32:26.545Z,13.73
2019-05-16T07:35:00.355Z,13.81
2019-05-16T07:37:33.441Z,13.79
2019-05-16T07:40:19.070Z,13.75
2019-05-16T07:42:42.282Z,13.79
2019-05-16T07:45:15.485Z,13.77
2019-05-16T07:47:50.657Z,13.88
2019-05-16T07:50:22.472Z,13.77
2019-05-16T07:52:56.574Z,13.70
2019-05-16T07:55:30.869Z,13.73
2019-05-16T07:58:03.571Z,13.75
2019-05-16T08:00:49.879Z,13.84
2019-05-16T08:03:10.679Z,13.90
2019-05-16T08:05:44.891Z,13.89
2019-05-16T08:08:23.270Z,13.77
2019-05-16T08:10:52.394Z,13.83
2019-05-16T08:13:25.081Z,13.85
2019-05-16T08:16:00.838Z,13.88
2019-05-16T08:18:32.384Z,13.96
2019-05-16T08:21:05.066Z,13.96
2019-05-16T08:23:37.838Z,14.08
2019-05-16T08:26:11.753Z,14.21
2019-05-16T08:28:44.481Z,14.30
2019-05-16T08:31:20.745Z,14.38
2019-05-16T08:36:25.799Z,14.35
2019-05-16T08:39:01.098Z,14.33
2019-05-16T08:41:32.363Z,14.27
2019-05-16T08:44:05.419Z,14.15
2019-05-16T08:46:41.162Z,14.06
2019-05-16T08:49:12.535Z,14.00
2019-05-16T08:51:45.404Z,14.02
2019-05-16T08:54:18.035Z,13.98
2019-05-16T08:56:55.323Z,13.96
2019-05-16T08:59:33.542Z,13.98
2019-05-16T09:02:12.031Z,13.98
2019-05-16T09:04:44.871Z,13.85
2019-05-16T09:07:17.555Z,13.80
2019-05-16T09:09:52.014Z,13.86
2019-05-16T09:10:28.428Z,14.36
2019-05-16T09:12:24.458Z,13.84
2019-05-16T09:14:59.348Z,13.83
2019-05-16T09:17:30.686Z,13.77
2019-05-16T09:20:03.419Z,13.99
2019-05-16T09:22:37.790Z,13.97
2019-05-16T09:25:11.337Z,13.99
2019-05-16T09:27:46.897Z,13.94
2019-05-16T09:30:20.374Z,13.94
2019-05-16T09:32:53.061Z,13.79
2019-05-16T09:35:28.056Z,13.50
2019-05-16T09:38:00.058Z,13.29
2019-05-16T09:40:32.940Z,13.15
2019-05-16T09:43:07.576Z,13.02
2019-05-16T09:45:39.940Z,12.96
2019-05-16T09:48:12.826Z,12.93
2019-05-16T09:50:46.850Z,12.85
2019-05-16T09:53:19.723Z,12.77
2019-05-16T09:55:52.707Z,12.84
2019-05-16T09:58:27.542Z,12.88
2019-05-16T10:01:00.942Z,12.98
2019-05-16T10:03:33.615Z,13.09
2019-05-16T10:06:07.957Z,13.15
2019-05-16T10:08:40.707Z,13.30
2019-05-16T10:11:13.691Z,13.41
2019-05-16T10:13:47.094Z,13.46
2019-05-16T10:16:21.321Z,13.45
2019-05-16T10:18:58.264Z,13.24
2019-05-16T10:21:37.202Z,13.23
2019-05-16T10:24:11.994Z,13.18
2019-05-16T10:26:48.533Z,13.16
2019-05-16T10:29:27.128Z,13.23
2019-05-16T10:32:01.099Z,13.31
2019-05-16T10:34:37.090Z,13.39
2019-05-16T10:37:11.643Z,13.58
2019-05-16T10:39:46.937Z,13.53
2019-05-16T10:42:28.483Z,13.50
2019-05-16T10:44:57.605Z,13.51
2019-05-16T10:47:31.333Z,13.52
2019-05-16T10:50:03.720Z,13.57
2019-05-16T10:52:36.827Z,13.47
2019-05-16T10:55:10.878Z,13.36
2019-05-16T10:57:47.150Z,13.45
2019-05-16T11:00:42.411Z,13.31
2019-05-16T11:02:58.714Z,13.28
2019-05-16T11:05:35.709Z,13.43
2019-05-16T11:08:04.395Z,13.48
2019-05-16T11:10:37.517Z,13.41
2019-05-16T11:13:10.132Z,13.55
2019-05-16T11:15:42.794Z,13.49
2019-05-16T11:18:17.576Z,13.54
2019-05-16T11:20:51.750Z,13.71
2019-05-16T11:23:30.848Z,13.80
2019-05-16T11:26:02.491Z,13.85
2019-05-16T11:28:37.033Z,13.74
2019-05-16T11:31:12.181Z,13.64
2019-05-16T11:33:47.553Z,13.68
2019-05-16T11:36:19.280Z,13.64
2019-05-16T11:38:51.958Z,13.81
2019-05-16T11:41:27.331Z,13.76
2019-05-16T11:43:59.256Z,13.74
2019-05-16T11:46:32.043Z,13.87
2019-05-16T11:49:04.729Z,13.76
2019-05-16T11:51:38.397Z,13.78
2019-05-16T11:54:10.846Z,13.88
2019-05-16T11:56:43.482Z,13.99
2019-05-16T11:59:16.211Z,14.24
2019-05-16T12:01:48.834Z,14.28
2019-05-16T12:04:21.062Z,14.41
2019-05-16T12:06:53.531Z,14.02
2019-05-16T12:09:32.885Z,14.33
2019-05-16T12:12:04.200Z,14.41
2019-05-16T12:14:36.936Z,14.50
2019-05-16T12:17:10.655Z,14.59
2019-05-16T12:19:44.012Z,14.57
2019-05-16T12:22:18.443Z,14.98
2019-05-16T12:24:51.144Z,15.08
2019-05-16T12:27:31.831Z,14.93
2019-05-16T12:29:59.060Z,14.74
2019-05-16T12:32:32.148Z,14.62
2019-05-16T12:35:06.484Z,14.43
2019-05-16T12:37:39.554Z,14.38
2019-05-16T12:40:13.052Z,14.60
2019-05-16T12:42:47.237Z,14.61
2019-05-16T12:45:20.771Z,14.61
2019-05-16T12:47:53.442Z,14.53
2019-05-16T12:50:28.616Z,14.41
2019-05-16T12:53:00.556Z,14.50
2019-05-16T12:55:33.327Z,14.61
2019-05-16T12:58:13.934Z,14.46
2019-05-16T13:00:44.065Z,14.55
2019-05-16T13:03:14.204Z,14.69
2019-05-16T13:05:47.719Z,14.62
2019-05-16T13:08:20.831Z,14.68
2019-05-16T13:10:53.384Z,14.67
2019-05-16T13:13:27.787Z,14.37
2019-05-16T13:16:00.289Z,14.38
2019-05-16T13:18:32.551Z,14.36
2019-05-16T13:21:06.830Z,14.34
2019-05-16T13:23:39.663Z,14.32
2019-05-16T13:26:12.128Z,14.28
2019-05-16T13:28:47.336Z,14.42
2019-05-16T13:31:19.128Z,14.42
2019-05-16T13:33:51.814Z,14.48
2019-05-16T13:36:27.061Z,14.62
2019-05-16T13:38:58.904Z,14.61
2019-05-16T13:41:34.387Z,14.82
2019-05-16T13:44:17.680Z,15.02
2019-05-16T13:46:39.922Z,15.01
2019-05-16T13:49:12.150Z,15.12
2019-05-16T13:51:44.868Z,15.27
2019-05-16T13:54:18.674Z,15.29
2019-05-16T13:56:51.844Z,15.32
2019-05-16T13:59:24.439Z,15.41
2019-05-16T14:01:57.379Z,15.64
2019-05-16T14:04:30.204Z,15.71
2019-05-16T14:07:03.101Z,15.67
2019-05-16T14:09:37.850Z,15.89
2019-05-16T14:12:10.079Z,15.90
2019-05-16T14:14:42.754Z,15.64
2019-05-16T14:17:17.837Z,15.44
2019-05-16T14:19:51.196Z,15.30
2019-05-16T14:22:23.874Z,15.15
2019-05-16T14:24:57.053Z,14.97
2019-05-16T14:27:29.847Z,14.88
2019-05-16T14:30:02.605Z,14.74
2019-05-16T14:32:41.729Z,14.68
2019-05-16T14:35:11.313Z,14.75
2019-05-16T14:37:46.698Z,14.85
2019-05-16T14:40:18.371Z,14.99
2019-05-16T14:42:51.054Z,15.04
2019-05-16T14:45:23.721Z,15.10
2019-05-16T14:47:57.953Z,15.22
2019-05-16T14:50:30.718Z,15.32
2019-05-16T14:53:03.403Z,15.44
2019-05-16T14:55:38.143Z,15.50
2019-05-16T14:58:10.801Z,15.55
2019-05-16T15:00:48.446Z,15.61
2019-05-16T15:03:18.920Z,15.60
2019-05-16T15:05:54.891Z,15.66
2019-05-16T15:08:25.931Z,15.61
2019-05-16T15:10:58.603Z,15.64
2019-05-16T15:13:31.280Z,15.73
2019-05-16T15:16:04.060Z,15.85
2019-05-16T15:18:38.422Z,15.82
2019-05-16T15:21:10.611Z,15.76
2019-05-16T15:23:43.333Z,15.63
2019-05-16T15:26:18.160Z,15.71
2019-05-16T15:28:51.448Z,15.64
2019-05-16T15:31:24.030Z,15.51
2019-05-16T15:33:57.259Z,15.35
2019-05-16T15:36:30.207Z,15.30
2019-05-16T15:39:02.884Z,15.10
2019-05-16T15:41:36.701Z,14.91
2019-05-16T15:44:10.380Z,14.77
2019-05-16T15:46:42.977Z,14.62
2019-05-16T15:49:17.218Z,14.52
2019-05-16T15:51:50.436Z,14.44
2019-05-16T15:54:28.510Z,14.43
2019-05-16T15:57:01.363Z,14.41
2019-05-16T15:59:34.047Z,14.43
2019-05-16T16:02:07.296Z,14.47
2019-05-16T16:04:40.224Z,14.47
2019-05-16T16:07:12.802Z,14.45
2019-05-16T16:09:47.060Z,14.56
2019-05-16T16:12:19.796Z,14.57
2019-05-16T16:14:52.502Z,14.57
2019-05-16T16:17:28.796Z,14.57
2019-05-16T16:19:59.473Z,14.54
2019-05-16T16:22:32.156Z,14.61
2019-05-16T16:25:06.877Z,14.63
2019-05-16T16:27:39.766Z,14.62
2019-05-16T16:30:12.123Z,14.62
2019-05-16T16:32:44.362Z,14.55
2019-05-16T16:35:17.508Z,14.50
2019-05-16T16:37:50.173Z,14.45
2019-05-16T16:40:22.962Z,14.40
2019-05-16T16:42:56.816Z,14.34
2019-05-16T16:45:30.568Z,14.30
2019-05-16T16:48:03.015Z,14.33
2019-05-16T16:50:37.095Z,14.30
2019-05-16T16:53:10.037Z,14.29
2019-05-16T16:55:42.731Z,14.29
2019-05-16T16:58:17.466Z,14.31
2019-05-16T17:00:49.621Z,14.22
2019-05-16T17:03:22.287Z,14.21
2019-05-16T17:05:56.965Z,14.19
2019-05-16T17:08:29.189Z,14.18
2019-05-16T17:11:02.998Z,14.21
2019-05-16T17:13:36.592Z,14.17
2019-05-16T17:16:21.943Z,14.14
2019-05-16T17:18:43.585Z,14.11
2019-05-16T17:21:17.094Z,14.01
2019-05-16T17:23:49.881Z,14.00
2019-05-16T17:26:22.552Z,14.01
2019-05-16T17:28:57.142Z,13.96
2019-05-16T17:31:30.050Z,13.89
2019-05-16T17:34:02.506Z,13.89
2019-05-16T17:36:37.262Z,13.84
2019-05-16T17:39:11.817Z,13.83
2019-05-16T17:41:47.821Z,13.78
2019-05-16T17:44:20.448Z,13.79
2019-05-16T17:46:53.118Z,13.75
2019-05-16T17:49:26.894Z,13.75
2019-05-16T17:52:00.137Z,13.70
2019-05-16T17:54:33.685Z,13.67
2019-05-16T17:57:07.408Z,13.67
2019-05-16T17:59:40.603Z,13.58
2019-05-16T18:02:14.230Z,13.54
2019-05-16T18:04:47.107Z,13.56
2019-05-16T18:07:19.824Z,13.55
2019-05-16T18:09:56.639Z,13.57
2019-05-16T18:12:28.765Z,13.51
2019-05-16T18:15:04.105Z,13.49
2019-05-16T18:17:37.627Z,13.52
2019-05-16T18:20:14.681Z,13.50
2019-05-16T18:22:49.147Z,13.50
2019-05-16T18:25:22.804Z,13.47
2019-05-16T18:27:57.194Z,13.44
2019-05-16T18:30:30.534Z,13.43
2019-05-16T18:33:04.105Z,13.40
2019-05-16T18:35:37.335Z,13.36
2019-05-16T18:38:10.509Z,13.34
2019-05-16T18:40:44.215Z,13.30
2019-05-16T18:43:17.492Z,13.33
2019-05-16T18:45:51.985Z,13.32
2019-05-16T18:48:27.017Z,13.32
2019-05-16T18:51:01.206Z,13.32
2019-05-16T18:53:37.446Z,13.26
2019-05-16T18:56:10.362Z,13.22
2019-05-16T18:58:46.641Z,13.22
2019-05-16T19:01:21.217Z,13.23
2019-05-16T19:03:57.569Z,13.24
2019-05-16T19:06:31.973Z,13.25
2019-05-16T19:09:08.150Z,13.26
2019-05-16T19:11:45.312Z,13.31
2019-05-16T19:14:20.695Z,13.35
2019-05-16T19:16:56.667Z,13.32
2019-05-16T19:19:29.073Z,13.29
2019-05-16T19:22:02.893Z,13.25
2019-05-16T19:24:38.842Z,13.30
2019-05-16T19:27:17.280Z,13.26
2019-05-16T19:29:56.794Z,13.27
2019-05-16T19:32:33.035Z,13.28
2019-05-16T19:35:07.777Z,13.31
2019-05-16T19:37:40.720Z,13.28
2019-05-16T19:40:14.139Z,13.22
2019-05-16T19:42:47.337Z,13.16
2019-05-16T19:45:21.025Z,13.15
2019-05-16T19:47:57.273Z,13.16
2019-05-16T19:50:29.556Z,13.16
2019-05-16T19:53:02.231Z,13.17
2019-05-16T19:55:36.579Z,13.16
2019-05-16T19:58:09.158Z,13.10
2019-05-16T20:00:42.747Z,13.12
2019-05-16T20:03:19.736Z,13.13
2019-05-16T20:05:56.844Z,13.14
2019-05-16T20:08:31.862Z,13.16
2019-05-16T20:11:04.807Z,13.17
2019-05-16T20:13:37.487Z,13.20
2019-05-16T20:16:09.877Z,13.15
2019-05-16T20:18:42.463Z,13.12
2019-05-16T20:21:18.402Z,13.06
2019-05-16T20:23:50.456Z,13.01
2019-05-16T20:26:22.974Z,12.99
2019-05-16T20:28:56.817Z,13.00
2019-05-16T20:31:30.340Z,13.00
2019-05-16T20:34:02.915Z,12.96
2019-05-16T20:36:36.999Z,12.92
2019-05-16T20:39:11.149Z,12.98
2019-05-16T20:41:43.933Z,12.99
2019-05-16T20:44:17.481Z,13.01
2019-05-16T20:46:50.410Z,13.06
2019-05-16T20:49:23.098Z,13.06
2019-05-16T20:51:57.837Z,13.02
2019-05-16T20:54:29.990Z,13.00
2019-05-16T20:57:02.664Z,12.97
2019-05-16T20:59:35.340Z,12.90
2019-05-16T21:02:07.607Z,12.87
2019-05-16T21:04:40.290Z,12.84
2019-05-16T21:07:12.867Z,12.76
2019-05-16T21:09:45.551Z,12.72
2019-05-16T21:12:19.144Z,12.73
2019-05-16T21:14:51.876Z,12.70
2019-05-16T21:17:26.567Z,12.70
2019-05-16T21:19:58.822Z,12.73
2019-05-16T21:22:31.395Z,12.78
2019-05-16T21:25:04.077Z,12.80
2019-05-16T21:27:37.983Z,12.83
2019-05-16T21:30:11.437Z,12.77
2019-05-16T21:32:47.182Z,12.68
2019-05-16T21:35:20.125Z,12.64
2019-05-16T21:37:52.797Z,12.62
2019-05-16T21:40:26.511Z,12.62
2019-05-16T21:42:59.383Z,12.64
2019-05-16T21:45:32.063Z,12.63
2019-05-16T21:48:04.639Z,12.64
2019-05-16T21:50:36.971Z,12.63
2019-05-16T21:53:09.693Z,12.60
2019-05-16T21:55:42.374Z,12.59
2019-05-16T21:58:14.942Z,12.57
2019-05-16T22:00:51.629Z,12.54
2019-05-16T22:03:27.009Z,12.57
2019-05-16T22:05:59.952Z,12.57
2019-05-16T22:08:33.751Z,12.56
2019-05-16T22:11:07.970Z,12.56
2019-05-16T22:13:40.961Z,12.59
2019-05-16T22:16:13.635Z,12.62
2019-05-16T22:18:47.347Z,12.58
2019-05-16T22:21:20.530Z,12.52
2019-05-16T22:23:53.213Z,12.57
2019-05-16T22:26:27.075Z,12.53
2019-05-16T22:28:59.953Z,12.46
2019-05-16T22:31:34.038Z,12.49
2019-05-16T22:34:07.633Z,12.46
2019-05-16T22:36:41.116Z,12.47
2019-05-16T22:39:13.783Z,12.48
2019-05-16T22:41:46.621Z,12.54
2019-05-16T22:44:19.454Z,12.54
2019-05-16T22:46:51.749Z,12.54
2019-05-16T22:49:24.708Z,12.49
2019-05-16T22:51:57.330Z,12.50
2019-05-16T22:54:29.967Z,12.41
2019-05-16T22:57:03.062Z,12.36
2019-05-16T22:59:35.731Z,12.39
2019-05-16T23:02:11.918Z,12.40
2019-05-16T23:04:44.378Z,12.41
2019-05-16T23:07:17.254Z,12.36
2019-05-16T23:09:50.503Z,12.34
2019-05-16T23:12:23.186Z,12.30
2019-05-16T23:14:57.003Z,12.25
2019-05-16T23:17:29.769Z,12.25
2019-05-16T23:20:06.256Z,12.22
2019-05-16T23:22:42.816Z,12.17
2019-05-16T23:25:17.329Z,12.17
2019-05-16T23:27:54.013Z,12.19
2019-05-16T23:30:31.688Z,12.23
2019-05-16T23:33:07.123Z,12.22
2019-05-16T23:35:41.495Z,12.26
2019-05-16T23:38:19.387Z,12.29
2019-05-16T23:40:49.007Z,12.34
2019-05-16T23:43:24.928Z,12.35
2019-05-16T23:45:59.139Z,12.39
2019-05-16T23:48:33.257Z,12.37
2019-05-16T23:51:09.529Z,12.39
2019-05-16T23:53:43.407Z,12.39
2019-05-16T23:56:17.681Z,12.41
2019-05-16T23:58:52.168Z,12.40
